createdAt,value
2023-04-22T00:02:23.431Z,8.17
2023-04-22T00:04:50.677Z,8.27
2023-04-22T00:07:17.579Z,11.23
2023-04-22T00:09:44.310Z,10.60
2023-04-22T00:12:13.812Z,7.67
2023-04-22T00:14:40.446Z,5.93
2023-04-22T00:17:07.304Z,5.67
2023-04-22T00:19:34.909Z,5.93
2023-04-22T00:22:01.759Z,7.33
2023-04-22T00:24:28.354Z,5.20
2023-04-22T00:26:54.950Z,5.13
2023-04-22T00:29:21.489Z,6.50
2023-04-22T00:31:48.230Z,6.17
2023-04-22T00:34:18.118Z,5.60
2023-04-22T00:36:44.786Z,6.10
2023-04-22T00:39:12.074Z,11.40
2023-04-22T00:41:39.286Z,9.47
2023-04-22T00:44:06.221Z,10.67
2023-04-22T00:46:34.176Z,14.23
2023-04-22T00:49:01.305Z,12.80
2023-04-22T00:51:28.102Z,16.00
2023-04-22T00:53:54.612Z,12.33
2023-04-22T00:56:21.871Z,9.97
2023-04-22T00:58:48.406Z,12.30
2023-04-22T01:01:15.118Z,9.50
2023-04-22T01:03:42.942Z,11.63
2023-04-22T01:06:09.685Z,9.77
2023-04-22T01:08:36.984Z,9.17
2023-04-22T01:11:03.680Z,9.57
2023-04-22T01:13:30.699Z,8.07
2023-04-22T01:15:57.950Z,8.17
2023-04-22T01:18:24.523Z,7.90
2023-04-22T01:20:51.269Z,6.60
2023-04-22T01:23:22.866Z,6.40
2023-04-22T01:25:50.053Z,6.97
2023-04-22T01:28:17.502Z,7.80
2023-04-22T01:30:44.482Z,6.03
2023-04-22T01:33:11.764Z,6.87
2023-04-22T01:35:38.643Z,6.87
2023-04-22T01:38:06.422Z,7.30
2023-04-22T01:40:33.255Z,7.13
2023-04-22T01:43:00.131Z,6.63
2023-04-22T01:45:27.247Z,6.43
2023-04-22T01:48:12.084Z,7.43
2023-04-22T01:50:38.691Z,9.23
2023-04-22T01:53:07.324Z,7.80
2023-04-22T01:55:36.307Z,9.23
2023-04-22T01:58:03.682Z,8.57
2023-04-22T02:00:30.517Z,8.77
2023-04-22T02:02:57.257Z,9.00
2023-04-22T02:05:24.011Z,10.37
2023-04-22T02:07:54.310Z,8.03
2023-04-22T02:10:21.192Z,7.80
2023-04-22T02:12:47.825Z,7.10
2023-04-22T02:15:14.457Z,7.40
2023-04-22T02:17:42.514Z,7.23
2023-04-22T02:20:11.541Z,7.37
2023-04-22T02:22:38.670Z,6.70
2023-04-22T02:25:05.825Z,8.40
2023-04-22T02:27:32.343Z,6.73
2023-04-22T02:29:58.959Z,4.97
2023-04-22T02:32:25.661Z,5.43
2023-04-22T02:34:52.572Z,5.33
2023-04-22T02:37:19.372Z,5.93
2023-04-22T02:39:45.985Z,6.13
2023-04-22T02:42:12.618Z,7.90
2023-04-22T02:44:39.198Z,9.17
2023-04-22T02:47:06.788Z,8.70
2023-04-22T02:49:33.359Z,7.30
2023-04-22T02:52:00.052Z,6.27
2023-04-22T02:54:26.698Z,5.90
2023-04-22T02:56:53.240Z,7.37
2023-04-22T02:59:19.776Z,9.03
2023-04-22T03:01:46.423Z,9.37
2023-04-22T03:04:32.503Z,7.67
2023-04-22T03:06:59.765Z,5.50
2023-04-22T03:09:26.295Z,6.80
2023-04-22T03:11:52.873Z,5.93
2023-04-22T03:14:19.498Z,7.80
2023-04-22T03:16:46.150Z,10.07
2023-04-22T03:19:12.741Z,9.93
2023-04-22T03:21:39.341Z,10.27
2023-04-22T03:24:06.064Z,12.47
2023-04-22T03:26:32.610Z,10.07
2023-04-22T03:28:59.193Z,10.30
2023-04-22T03:31:25.756Z,9.67
2023-04-22T03:33:52.328Z,9.73
2023-04-22T03:36:18.916Z,10.53
2023-04-22T03:38:45.451Z,8.17
2023-04-22T03:41:11.998Z,10.13
2023-04-22T03:43:38.648Z,9.67
2023-04-22T03:46:05.371Z,10.87
2023-04-22T03:48:35.776Z,10.80
2023-04-22T03:51:02.780Z,11.23
2023-04-22T03:53:29.752Z,8.90
2023-04-22T03:56:11.376Z,8.70
2023-04-22T03:58:37.938Z,8.03
2023-04-22T04:01:04.650Z,10.40
2023-04-22T04:03:31.685Z,9.53
2023-04-22T04:05:58.503Z,9.43
2023-04-22T04:08:25.174Z,7.30
2023-04-22T04:10:51.812Z,6.47
2023-04-22T04:13:18.348Z,8.63
2023-04-22T04:15:45.010Z,7.77
2023-04-22T04:18:12.048Z,6.57
2023-04-22T04:20:38.697Z,8.63
2023-04-22T04:23:05.637Z,8.53
2023-04-22T04:25:37.823Z,6.73
2023-04-22T04:28:09.457Z,9.60
2023-04-22T04:30:36.811Z,8.27
2023-04-22T04:33:07.480Z,7.87
2023-04-22T04:35:34.885Z,8.83
2023-04-22T04:38:05.725Z,7.67
2023-04-22T04:40:32.566Z,7.00
2023-04-22T04:42:59.252Z,6.87
2023-04-22T04:45:26.452Z,7.77
2023-04-22T04:47:53.274Z,19.17
2023-04-22T04:50:23.122Z,11.73
2023-04-22T04:52:49.774Z,9.03
2023-04-22T04:55:16.898Z,9.10
2023-04-22T04:57:44.660Z,9.13
2023-04-22T05:00:11.438Z,6.97
2023-04-22T05:02:38.180Z,7.03
2023-04-22T05:05:05.079Z,7.70
2023-04-22T05:07:31.671Z,7.30
2023-04-22T05:09:58.239Z,7.77
2023-04-22T05:12:24.803Z,8.47
2023-04-22T05:14:51.346Z,6.13
2023-04-22T05:17:17.986Z,10.50
2023-04-22T05:19:44.752Z,29.87
2023-04-22T05:22:11.498Z,18.13
2023-04-22T05:24:38.235Z,10.97
2023-04-22T05:27:04.841Z,7.97
2023-04-22T05:29:31.793Z,6.40
2023-04-22T05:31:58.561Z,6.00
2023-04-22T05:34:25.116Z,7.47
2023-04-22T05:36:51.770Z,5.20
2023-04-22T05:39:18.456Z,7.80
2023-04-22T05:41:46.931Z,5.00
2023-04-22T05:44:13.725Z,3.93
2023-04-22T05:46:40.405Z,4.63
2023-04-22T05:49:06.849Z,4.07
2023-04-22T05:51:33.358Z,7.93
2023-04-22T05:53:59.867Z,6.07
2023-04-22T05:56:26.592Z,6.43
2023-04-22T05:58:53.043Z,4.90
2023-04-22T06:01:19.625Z,4.83
2023-04-22T06:03:46.372Z,5.63
2023-04-22T06:06:13.170Z,5.67
2023-04-22T06:08:39.749Z,4.80
2023-04-22T06:11:06.376Z,5.57
2023-04-22T06:13:32.921Z,5.17
2023-04-22T06:15:59.678Z,3.80
2023-04-22T06:18:27.452Z,3.03
2023-04-22T06:20:54.852Z,2.93
2023-04-22T06:23:21.468Z,8.20
2023-04-22T06:25:48.061Z,4.13
2023-04-22T06:28:14.699Z,2.90
2023-04-22T06:30:41.278Z,4.53
2023-04-22T06:33:13.613Z,4.70
2023-04-22T06:35:40.193Z,6.07
2023-04-22T06:38:06.770Z,5.03
2023-04-22T06:40:33.373Z,5.53
2023-04-22T06:43:07.212Z,5.73
2023-04-22T06:45:33.791Z,5.30
2023-04-22T06:48:00.563Z,6.77
2023-04-22T06:50:27.372Z,4.33
2023-04-22T06:52:54.520Z,4.90
2023-04-22T06:55:21.802Z,7.27
2023-04-22T06:57:48.542Z,6.07
2023-04-22T07:00:15.167Z,6.53
2023-04-22T07:02:42.188Z,4.67
2023-04-22T07:05:09.184Z,5.37
2023-04-22T07:07:36.040Z,6.53
2023-04-22T07:10:02.708Z,6.47
2023-04-22T07:12:29.456Z,5.57
2023-04-22T07:14:56.297Z,6.23
2023-04-22T07:17:25.740Z,7.60
2023-04-22T07:19:53.677Z,9.40
2023-04-22T07:22:20.229Z,7.47
2023-04-22T07:24:46.729Z,5.47
2023-04-22T07:27:13.382Z,8.30
2023-04-22T07:29:40.461Z,7.23
2023-04-22T07:32:07.353Z,5.70
2023-04-22T07:34:34.103Z,10.03
2023-04-22T07:37:01.086Z,4.00
2023-04-22T07:39:27.758Z,6.60
2023-04-22T07:42:07.443Z,3.97
2023-04-22T07:44:34.166Z,1.97
2023-04-22T07:47:00.953Z,2.10
2023-04-22T07:49:27.606Z,3.17
2023-04-22T07:51:54.366Z,3.50
2023-04-22T07:54:21.050Z,3.43
2023-04-22T07:56:47.838Z,2.87
2023-04-22T07:59:16.147Z,1.70
2023-04-22T08:01:42.805Z,1.53
2023-04-22T08:04:09.638Z,2.83
2023-04-22T08:06:36.370Z,2.00
2023-04-22T08:09:03.022Z,4.33
2023-04-22T08:11:29.693Z,6.73
2023-04-22T08:13:59.196Z,5.43
2023-04-22T08:16:25.923Z,2.23
2023-04-22T08:19:01.750Z,3.27
2023-04-22T08:21:33.209Z,4.47
2023-04-22T08:23:59.798Z,4.13
2023-04-22T08:26:26.442Z,3.67
2023-04-22T08:28:53.122Z,2.20
2023-04-22T08:31:22.745Z,61.00
2023-04-22T08:33:50.855Z,3.10
2023-04-22T08:36:17.479Z,4.37
2023-04-22T08:38:44.090Z,2.83
2023-04-22T08:41:10.854Z,2.57
2023-04-22T08:43:37.491Z,4.40
2023-04-22T08:46:04.121Z,3.60
2023-04-22T08:48:32.217Z,2.63
2023-04-22T08:50:58.823Z,6.07
2023-04-22T08:53:25.621Z,4.00
2023-04-22T08:55:52.392Z,2.03
2023-04-22T08:58:18.981Z,2.27
2023-04-22T09:00:45.720Z,2.10
2023-04-22T09:03:12.733Z,3.10
2023-04-22T09:05:40.203Z,4.43
2023-04-22T09:08:08.103Z,2.57
2023-04-22T09:10:38.480Z,2.20
2023-04-22T09:13:06.383Z,5.20
2023-04-22T09:15:33.651Z,1.70
2023-04-22T09:18:02.077Z,2.00
2023-04-22T09:20:29.523Z,2.63
2023-04-22T09:30:34.329Z,2.60
2023-04-22T09:33:02.217Z,2.00
2023-04-22T09:35:28.812Z,1.93
2023-04-22T09:37:55.801Z,2.03
2023-04-22T09:40:22.454Z,3.13
2023-04-22T09:42:52.926Z,5.83
2023-04-22T09:45:27.690Z,1.90
2023-04-22T09:47:55.237Z,2.10
2023-04-22T09:50:23.309Z,1.83
2023-04-22T09:53:00.006Z,2.63
2023-04-22T10:02:54.380Z,8.43
2023-04-22T10:05:21.341Z,3.13
2023-04-22T10:07:48.133Z,4.10
2023-04-22T10:10:15.049Z,3.67
2023-04-22T10:12:41.749Z,2.60
2023-04-22T10:15:13.835Z,2.47
2023-04-22T10:17:41.241Z,1.97
2023-04-22T10:20:22.673Z,2.13
2023-04-22T10:22:52.424Z,4.17
2023-04-22T10:25:41.759Z,1.10
2023-04-22T10:28:09.722Z,1.80
2023-04-22T10:30:37.652Z,1.10
2023-04-22T10:33:27.756Z,1.23
2023-04-22T10:39:35.312Z,1.20
2023-04-22T10:42:05.828Z,3.50
2023-04-22T10:44:51.178Z,3.60
2023-04-22T10:47:30.853Z,1.30
2023-04-22T10:50:16.009Z,9.13
2023-04-22T10:52:43.189Z,9.10
2023-04-22T10:55:09.986Z,2.77
2023-04-22T10:57:38.439Z,13.10
2023-04-22T11:00:23.168Z,2.60
2023-04-22T11:03:08.396Z,1.13
2023-04-22T11:05:35.995Z,1.67
2023-04-22T11:08:40.272Z,1.73
2023-04-22T11:11:11.172Z,1.47
2023-04-22T11:13:37.903Z,2.33
2023-04-22T11:16:08.176Z,3.17
2023-04-22T11:18:37.889Z,3.10
2023-04-22T11:21:06.645Z,2.43
2023-04-22T11:23:33.295Z,4.67
2023-04-22T11:26:01.721Z,1.77
2023-04-22T11:28:28.954Z,3.43
2023-04-22T11:31:06.630Z,1.87
2023-04-22T11:33:34.792Z,1.30
2023-04-22T11:36:01.881Z,2.10
2023-04-22T11:38:28.501Z,7.00
2023-04-22T11:40:55.414Z,1.93
2023-04-22T11:43:21.986Z,2.20
2023-04-22T11:45:48.628Z,2.10
2023-04-22T11:48:16.809Z,1.30
2023-04-22T11:50:48.101Z,2.40
2023-04-22T11:53:16.275Z,1.67
2023-04-22T11:55:43.422Z,3.60
2023-04-22T11:58:14.787Z,1.70
2023-04-22T12:00:42.753Z,1.67
2023-04-22T12:03:15.164Z,2.83
2023-04-22T12:05:45.225Z,2.47
2023-04-22T12:08:11.856Z,1.27
2023-04-22T12:10:50.099Z,1.50
2023-04-22T12:13:20.038Z,3.33
2023-04-22T12:15:46.782Z,2.17
2023-04-22T12:18:13.468Z,1.93
2023-04-22T12:20:40.830Z,4.47
2023-04-22T12:23:14.569Z,2.63
2023-04-22T12:25:41.926Z,1.93
2023-04-22T12:28:08.881Z,3.17
2023-04-22T12:30:35.468Z,1.97
2023-04-22T12:33:20.384Z,1.57
2023-04-22T12:35:48.958Z,4.90
2023-04-22T12:38:16.186Z,2.23
2023-04-22T12:40:42.724Z,3.93
2023-04-22T12:43:09.365Z,2.40
2023-04-22T12:45:36.107Z,1.20
2023-04-22T12:48:02.701Z,6.83
2023-04-22T12:50:29.380Z,2.60
2023-04-22T12:53:02.182Z,2.10
2023-04-22T12:55:28.914Z,2.70
2023-04-22T13:01:24.317Z,5.90
2023-04-22T13:03:53.422Z,2.13
2023-04-22T13:06:20.156Z,1.47
2023-04-22T13:08:46.730Z,4.00
2023-04-22T13:11:13.356Z,2.23
2023-04-22T13:13:39.918Z,2.10
2023-04-22T13:16:06.596Z,1.20
2023-04-22T13:18:33.397Z,1.43
2023-04-22T13:21:00.460Z,1.67
2023-04-22T13:23:27.757Z,3.13
2023-04-22T13:25:54.666Z,4.97
2023-04-22T13:28:21.252Z,4.13
2023-04-22T13:30:47.821Z,2.00
2023-04-22T13:33:14.581Z,2.47
2023-04-22T13:35:41.177Z,1.83
2023-04-22T13:38:08.128Z,3.80
2023-04-22T13:40:34.990Z,2.47
2023-04-22T13:43:01.828Z,2.50
2023-04-22T13:45:28.499Z,5.60
2023-04-22T13:48:14.120Z,2.50
2023-04-22T13:50:42.739Z,2.72
2023-04-22T13:53:12.630Z,1.88
2023-04-22T13:55:39.709Z,2.97
2023-04-22T13:58:11.446Z,3.57
2023-04-22T14:00:38.085Z,4.53
2023-04-22T14:03:05.287Z,4.33
2023-04-22T14:05:35.184Z,5.13
2023-04-22T14:08:01.719Z,2.27
2023-04-22T14:10:28.819Z,6.47
2023-04-22T14:12:55.648Z,1.40
2023-04-22T14:15:22.189Z,4.20
2023-04-22T14:17:49.941Z,2.80
2023-04-22T14:20:16.647Z,2.57
2023-04-22T14:22:43.277Z,4.13
2023-04-22T14:25:10.022Z,3.67
2023-04-22T14:27:36.723Z,2.57
2023-04-22T14:30:05.014Z,3.23
2023-04-22T14:32:31.771Z,3.20
2023-04-22T14:34:58.384Z,2.83
2023-04-22T14:37:25.011Z,3.37
2023-04-22T14:39:51.694Z,3.67
2023-04-22T14:42:19.625Z,2.83
2023-04-22T14:44:46.235Z,6.50
2023-04-22T14:47:12.964Z,5.40
2023-04-22T14:49:39.721Z,2.77
2023-04-22T14:52:07.023Z,2.13
2023-04-22T14:54:33.726Z,4.10
2023-04-22T14:57:00.270Z,2.13
2023-04-22T15:03:26.704Z,4.13
2023-04-22T15:05:54.515Z,5.53
2023-04-22T15:08:21.788Z,2.75
2023-04-22T15:10:48.584Z,7.27
2023-04-22T15:13:15.285Z,5.20
2023-04-22T15:15:41.900Z,3.90
2023-04-22T15:18:09.025Z,3.30
2023-04-22T15:20:35.954Z,2.93
2023-04-22T15:23:02.849Z,3.30
2023-04-22T15:25:35.057Z,8.10
2023-04-22T15:28:01.599Z,4.20
2023-04-22T15:30:28.138Z,5.18
2023-04-22T15:32:54.722Z,4.83
2023-04-22T15:35:22.549Z,4.30
2023-04-22T15:37:58.392Z,5.03
2023-04-22T15:40:25.047Z,5.23
2023-04-22T15:42:51.580Z,3.40
2023-04-22T15:45:18.216Z,5.90
2023-04-22T15:47:44.849Z,4.18
2023-04-22T15:50:11.397Z,4.00
2023-04-22T15:52:38.630Z,3.97
2023-04-22T15:55:05.948Z,3.57
2023-04-22T15:57:35.629Z,3.53
2023-04-22T16:00:12.435Z,3.93
2023-04-22T16:02:40.813Z,4.90
2023-04-22T16:05:07.703Z,5.00
2023-04-22T16:07:34.334Z,2.87
2023-04-22T16:10:00.996Z,2.43
2023-04-22T16:12:27.579Z,3.87
2023-04-22T16:14:54.079Z,4.20
2023-04-22T16:17:21.022Z,7.13
2023-04-22T16:19:47.646Z,5.77
2023-04-22T16:22:14.280Z,4.87
2023-04-22T16:24:43.833Z,3.20
2023-04-22T16:27:13.229Z,4.00
2023-04-22T16:29:40.081Z,2.27
2023-04-22T16:32:08.015Z,4.27
2023-04-22T16:34:35.858Z,10.37
2023-04-22T16:37:02.549Z,3.27
2023-04-22T16:39:29.099Z,2.97
2023-04-22T16:41:55.780Z,2.57
2023-04-22T16:44:22.328Z,3.13
2023-04-22T16:46:48.843Z,5.67
2023-04-22T16:49:15.343Z,4.33
2023-04-22T16:51:41.916Z,3.47
2023-04-22T16:54:08.440Z,4.10
2023-04-22T16:56:34.991Z,4.43
2023-04-22T16:59:01.625Z,4.20
2023-04-22T17:01:30.005Z,6.50
2023-04-22T17:03:57.180Z,4.93
2023-04-22T17:06:24.333Z,4.13
2023-04-22T17:08:52.615Z,3.60
2023-04-22T17:11:19.210Z,2.80
2023-04-22T17:13:45.761Z,6.17
2023-04-22T17:16:12.396Z,4.27
2023-04-22T17:18:38.951Z,3.20
2023-04-22T17:21:05.507Z,5.05
2023-04-22T17:23:32.088Z,3.20
2023-04-22T17:25:59.483Z,6.33
2023-04-22T17:28:26.589Z,6.07
2023-04-22T17:30:53.326Z,8.30
2023-04-22T17:33:29.367Z,3.90
2023-04-22T17:35:56.125Z,6.17
2023-04-22T17:38:22.717Z,5.33
2023-04-22T17:48:06.133Z,5.03
2023-04-22T17:50:32.826Z,7.07
2023-04-22T17:52:59.464Z,10.73
2023-04-22T17:55:26.197Z,12.53
2023-04-22T17:57:52.786Z,8.27
2023-04-22T18:00:19.408Z,5.37
2023-04-22T18:02:46.438Z,7.90
2023-04-22T18:05:13.238Z,7.17
2023-04-22T18:07:39.814Z,7.10
2023-04-22T18:10:07.488Z,4.30
2023-04-22T18:12:34.134Z,6.53
2023-04-22T18:15:01.049Z,7.17
2023-04-22T18:17:27.637Z,6.90
2023-04-22T18:20:00.070Z,5.53
2023-04-22T18:22:36.960Z,6.40
2023-04-22T18:25:03.806Z,4.30
2023-04-22T18:27:30.567Z,7.57
2023-04-22T18:29:57.308Z,7.30
2023-04-22T18:32:42.547Z,7.43
2023-04-22T18:35:09.614Z,6.33
2023-04-22T18:37:43.799Z,6.27
2023-04-22T18:40:12.500Z,10.30
2023-04-22T18:42:39.047Z,9.67
2023-04-22T18:45:06.278Z,16.83
2023-04-22T18:47:32.933Z,24.43
2023-04-22T18:50:02.527Z,25.40
2023-04-22T18:52:47.280Z,25.47
2023-04-22T18:55:18.791Z,24.43
2023-04-22T18:57:45.429Z,24.30
2023-04-22T19:00:13.278Z,20.40
2023-04-22T19:02:42.412Z,22.37
2023-04-22T19:05:10.890Z,20.80
2023-04-22T19:07:38.428Z,18.83
2023-04-22T19:10:05.424Z,13.83
2023-04-22T19:12:34.516Z,10.60
2023-04-22T19:15:01.223Z,11.10
2023-04-22T19:17:33.726Z,16.13
2023-04-22T19:20:00.674Z,10.80
2023-04-22T19:22:27.317Z,14.70
2023-04-22T19:24:53.866Z,19.97
2023-04-22T19:27:20.601Z,18.30
2023-04-22T19:29:51.414Z,20.80
2023-04-22T19:32:18.109Z,15.13
2023-04-22T19:34:44.915Z,14.63
2023-04-22T19:37:11.661Z,13.00
2023-04-22T19:39:38.411Z,12.90
2023-04-22T19:42:05.293Z,12.27
2023-04-22T19:44:31.887Z,11.80
2023-04-22T19:46:58.449Z,15.43
2023-04-22T19:49:25.201Z,11.77
2023-04-22T19:51:52.532Z,12.87
2023-04-22T19:54:20.999Z,15.07
2023-04-22T19:56:50.366Z,19.53
2023-04-22T19:59:17.278Z,17.77
2023-04-22T20:01:43.999Z,16.77
2023-04-22T20:04:10.867Z,14.33
2023-04-22T20:06:37.936Z,15.73
2023-04-22T20:09:05.647Z,17.20
2023-04-22T20:11:32.652Z,15.37
2023-04-22T20:13:59.390Z,13.33
2023-04-22T20:16:27.367Z,14.00
2023-04-22T20:18:55.554Z,12.13
2023-04-22T20:21:22.460Z,10.83
2023-04-22T20:23:58.218Z,10.17
2023-04-22T20:26:24.886Z,9.27
2023-04-22T20:28:54.840Z,8.50
2023-04-22T20:31:23.355Z,9.03
2023-04-22T20:34:08.089Z,11.40
2023-04-22T20:36:43.111Z,7.67
2023-04-22T20:42:40.146Z,15.20
2023-04-22T20:45:30.519Z,19.63
2023-04-22T20:49:38.157Z,22.27
2023-04-22T20:51:12.552Z,33.53
2023-04-22T20:53:39.857Z,21.20
2023-04-22T20:56:07.960Z,21.90
2023-04-22T20:58:34.568Z,26.80
2023-04-22T21:01:01.318Z,28.57
2023-04-22T21:03:28.193Z,30.10
2023-04-22T21:05:55.432Z,43.07
2023-04-22T21:08:23.484Z,24.00
2023-04-22T21:14:55.302Z,22.47
2023-04-22T21:17:24.291Z,24.63
2023-04-22T21:19:56.933Z,25.20
2023-04-22T21:22:42.601Z,20.70
2023-04-22T21:25:09.344Z,23.23
2023-04-22T21:27:36.158Z,20.27
2023-04-22T21:33:33.099Z,50.67
2023-04-22T21:35:59.838Z,23.90
2023-04-22T21:38:26.362Z,23.53
2023-04-22T21:40:52.800Z,26.27
2023-04-22T21:43:19.305Z,24.87
2023-04-22T21:45:45.840Z,34.10
2023-04-22T21:48:12.629Z,25.27
2023-04-22T21:53:52.049Z,22.07
2023-04-22T21:56:18.649Z,24.23
2023-04-22T21:58:45.136Z,27.60
2023-04-22T22:01:11.660Z,27.30
2023-04-22T22:03:38.398Z,23.57
2023-04-22T22:06:05.313Z,23.97
2023-04-22T22:08:32.148Z,25.50
2023-04-22T22:10:59.568Z,26.97
2023-04-22T22:13:26.527Z,24.20
2023-04-22T22:15:55.525Z,25.17
2023-04-22T22:18:22.356Z,21.70
2023-04-22T22:20:48.979Z,23.30
2023-04-22T22:23:15.610Z,24.10
2023-04-22T22:25:42.270Z,22.33
2023-04-22T22:28:09.076Z,23.70
2023-04-22T22:30:35.655Z,19.77
2023-04-22T22:33:02.356Z,23.57
2023-04-22T22:35:29.037Z,20.47
2023-04-22T22:38:01.630Z,16.47
2023-04-22T22:40:28.256Z,20.60
2023-04-22T22:42:54.839Z,19.37
2023-04-22T22:45:21.382Z,21.23
2023-04-22T22:48:00.044Z,17.30
2023-04-22T22:50:27.375Z,19.03
2023-04-22T22:52:53.885Z,19.27
2023-04-22T22:55:20.587Z,18.90
2023-04-22T22:57:47.152Z,18.27
2023-04-22T23:00:14.041Z,18.93
2023-04-22T23:02:40.874Z,19.80
2023-04-22T23:05:10.538Z,17.80
2023-04-22T23:07:37.346Z,18.20
2023-04-22T23:10:04.551Z,16.10
2023-04-22T23:16:15.118Z,17.37
2023-04-22T23:18:41.733Z,21.40
2023-04-22T23:21:08.517Z,17.67
2023-04-22T23:23:37.220Z,16.93
2023-04-22T23:26:03.894Z,23.20
2023-04-22T23:28:30.636Z,21.83
2023-04-22T23:30:57.400Z,16.27
2023-04-22T23:33:24.798Z,18.27
2023-04-22T23:35:54.502Z,21.53
2023-04-22T23:38:21.487Z,18.53
2023-04-22T23:40:48.078Z,19.90
2023-04-22T23:43:14.824Z,20.47
2023-04-22T23:45:41.499Z,23.43
2023-04-22T23:48:08.869Z,19.03
2023-04-22T23:50:35.771Z,22.23
2023-04-22T23:53:02.417Z,19.77
2023-04-22T23:55:29.138Z,19.90
2023-04-22T23:57:55.875Z,17.40
